sensor_id;sensor_type;location;lat;lon;timestamp;P1;durP1;ratioP1;P2;durP2;ratioP2
36797;SDS011;22748;8.426;99.512;2022-12-24T00:00:20;35.80;;;23.45;;
36797;SDS011;22748;8.426;99.512;2022-12-24T00:02:51;33.05;;;25.27;;
36797;SDS011;22748;8.426;99.512;2022-12-24T00:05:20;31.55;;;23.25;;
36797;SDS011;22748;8.426;99.512;2022-12-24T00:07:52;28.13;;;21.20;;
36797;SDS011;22748;8.426;99.512;2022-12-24T00:10:21;30.45;;;20.95;;
36797;SDS011;22748;8.426;99.512;2022-12-24T00:12:51;26.30;;;18.05;;
36797;SDS011;22748;8.426;99.512;2022-12-24T00:15:21;22.08;;;16.48;;
36797;SDS011;22748;8.426;99.512;2022-12-24T00:17:51;27.02;;;16.55;;
36797;SDS011;22748;8.426;99.512;2022-12-24T00:20:20;24.55;;;16.45;;
36797;SDS011;22748;8.426;99.512;2022-12-24T00:23:14;18.90;;;14.68;;
36797;SDS011;22748;8.426;99.512;2022-12-24T00:25:47;23.05;;;15.52;;
36797;SDS011;22748;8.426;99.512;2022-12-24T00:28:17;29.90;;;20.35;;
36797;SDS011;22748;8.426;99.512;2022-12-24T00:30:47;48.28;;;30.58;;
36797;SDS011;22748;8.426;99.512;2022-12-24T00:33:18;46.05;;;30.63;;
36797;SDS011;22748;8.426;99.512;2022-12-24T00:35:48;43.03;;;29.30;;
36797;SDS011;22748;8.426;99.512;2022-12-24T00:40:49;33.15;;;20.23;;
36797;SDS011;22748;8.426;99.512;2022-12-24T00:43:19;40.63;;;19.83;;
36797;SDS011;22748;8.426;99.512;2022-12-24T00:45:55;30.10;;;18.95;;
36797;SDS011;22748;8.426;99.512;2022-12-24T00:48:27;27.40;;;19.45;;
36797;SDS011;22748;8.426;99.512;2022-12-24T00:50:59;28.00;;;18.25;;
36797;SDS011;22748;8.426;99.512;2022-12-24T00:53:30;22.63;;;14.82;;
36797;SDS011;22748;8.426;99.512;2022-12-24T00:56:00;21.52;;;14.00;;
36797;SDS011;22748;8.426;99.512;2022-12-24T00:58:31;23.02;;;16.25;;
36797;SDS011;22748;8.426;99.512;2022-12-24T01:01:01;16.58;;;14.70;;
36797;SDS011;22748;8.426;99.512;2022-12-24T01:03:31;20.73;;;14.38;;
36797;SDS011;22748;8.426;99.512;2022-12-24T01:06:06;56.67;;;17.05;;
36797;SDS011;22748;8.426;99.512;2022-12-24T01:08:38;40.20;;;14.93;;
36797;SDS011;22748;8.426;99.512;2022-12-24T01:11:08;33.40;;;13.88;;
36797;SDS011;22748;8.426;99.512;2022-12-24T01:13:39;18.25;;;13.15;;
36797;SDS011;22748;8.426;99.512;2022-12-24T01:16:13;28.23;;;14.38;;
36797;SDS011;22748;8.426;99.512;2022-12-24T01:18:45;70.25;;;16.08;;
36797;SDS011;22748;8.426;99.512;2022-12-24T01:24:15;32.28;;;13.57;;
36797;SDS011;22748;8.426;99.512;2022-12-24T01:29:14;17.63;;;12.52;;
36797;SDS011;22748;8.426;99.512;2022-12-24T01:31:43;13.55;;;11.57;;
36797;SDS011;22748;8.426;99.512;2022-12-24T01:34:13;13.90;;;11.27;;
36797;SDS011;22748;8.426;99.512;2022-12-24T01:36:43;15.80;;;12.38;;
36797;SDS011;22748;8.426;99.512;2022-12-24T01:39:15;22.73;;;13.07;;
36797;SDS011;22748;8.426;99.512;2022-12-24T01:41:47;24.20;;;12.93;;
36797;SDS011;22748;8.426;99.512;2022-12-24T01:44:32;19.05;;;11.60;;
36797;SDS011;22748;8.426;99.512;2022-12-24T01:47:07;19.50;;;11.35;;
36797;SDS011;22748;8.426;99.512;2022-12-24T01:49:42;34.90;;;14.57;;
36797;SDS011;22748;8.426;99.512;2022-12-24T01:52:17;30.27;;;13.30;;
36797;SDS011;22748;8.426;99.512;2022-12-24T01:54:52;17.23;;;11.68;;
36797;SDS011;22748;8.426;99.512;2022-12-24T01:57:26;16.05;;;10.27;;
36797;SDS011;22748;8.426;99.512;2022-12-24T02:00:00;18.25;;;11.02;;
36797;SDS011;22748;8.426;99.512;2022-12-24T02:02:34;14.90;;;11.73;;
36797;SDS011;22748;8.426;99.512;2022-12-24T02:05:06;22.63;;;12.38;;
36797;SDS011;22748;8.426;99.512;2022-12-24T02:07:41;18.17;;;10.85;;
36797;SDS011;22748;8.426;99.512;2022-12-24T02:10:15;13.82;;;10.05;;
36797;SDS011;22748;8.426;99.512;2022-12-24T02:12:45;12.73;;;9.85;;
36797;SDS011;22748;8.426;99.512;2022-12-24T02:15:19;16.10;;;11.07;;
36797;SDS011;22748;8.426;99.512;2022-12-24T02:17:52;17.10;;;10.20;;
36797;SDS011;22748;8.426;99.512;2022-12-24T02:20:33;13.05;;;9.68;;
36797;SDS011;22748;8.426;99.512;2022-12-24T02:24:11;11.63;;;8.30;;
36797;SDS011;22748;8.426;99.512;2022-12-24T02:27:28;17.55;;;8.27;;
36797;SDS011;22748;8.426;99.512;2022-12-24T02:30:18;12.98;;;7.60;;
36797;SDS011;22748;8.426;99.512;2022-12-24T02:32:57;15.48;;;7.70;;
36797;SDS011;22748;8.426;99.512;2022-12-24T02:38:42;11.32;;;8.23;;
36797;SDS011;22748;8.426;99.512;2022-12-24T02:52:28;11.55;;;7.70;;
36797;SDS011;22748;8.426;99.512;2022-12-24T02:55:30;10.70;;;7.83;;
36797;SDS011;22748;8.426;99.512;2022-12-24T02:58:13;12.10;;;7.68;;
36797;SDS011;22748;8.426;99.512;2022-12-24T03:00:56;9.50;;;7.53;;
36797;SDS011;22748;8.426;99.512;2022-12-24T03:04:01;9.90;;;7.32;;
36797;SDS011;22748;8.426;99.512;2022-12-24T03:09:49;8.90;;;6.70;;
36797;SDS011;22748;8.426;99.512;2022-12-24T03:15:54;14.30;;;7.15;;
36797;SDS011;22748;8.426;99.512;2022-12-24T03:18:49;10.73;;;7.78;;
36797;SDS011;22748;8.426;99.512;2022-12-24T03:21:24;10.48;;;7.45;;
36797;SDS011;22748;8.426;99.512;2022-12-24T03:34:20;10.55;;;7.35;;
36797;SDS011;22748;8.426;99.512;2022-12-24T03:36:51;9.85;;;6.82;;
36797;SDS011;22748;8.426;99.512;2022-12-24T03:39:21;9.95;;;6.72;;
36797;SDS011;22748;8.426;99.512;2022-12-24T03:41:51;10.13;;;7.30;;
36797;SDS011;22748;8.426;99.512;2022-12-24T03:44:22;11.80;;;7.63;;
36797;SDS011;22748;8.426;99.512;2022-12-24T03:46:52;8.57;;;7.47;;
36797;SDS011;22748;8.426;99.512;2022-12-24T03:49:23;10.48;;;7.55;;
36797;SDS011;22748;8.426;99.512;2022-12-24T03:54:24;13.48;;;7.93;;
36797;SDS011;22748;8.426;99.512;2022-12-24T03:59:25;10.55;;;7.35;;
36797;SDS011;22748;8.426;99.512;2022-12-24T04:01:55;11.15;;;7.68;;
36797;SDS011;22748;8.426;99.512;2022-12-24T04:04:27;9.43;;;6.90;;
36797;SDS011;22748;8.426;99.512;2022-12-24T04:06:59;12.00;;;7.25;;
36797;SDS011;22748;8.426;99.512;2022-12-24T04:09:29;10.82;;;7.65;;
36797;SDS011;22748;8.426;99.512;2022-12-24T04:12:01;8.98;;;7.20;;
36797;SDS011;22748;8.426;99.512;2022-12-24T04:14:33;10.32;;;7.57;;
36797;SDS011;22748;8.426;99.512;2022-12-24T04:17:03;11.00;;;7.40;;
36797;SDS011;22748;8.426;99.512;2022-12-24T04:19:36;11.20;;;8.32;;
36797;SDS011;22748;8.426;99.512;2022-12-24T04:22:05;9.27;;;8.27;;
36797;SDS011;22748;8.426;99.512;2022-12-24T04:24:58;9.25;;;8.35;;
36797;SDS011;22748;8.426;99.512;2022-12-24T04:27:27;14.68;;;10.05;;
36797;SDS011;22748;8.426;99.512;2022-12-24T04:29:57;16.33;;;9.50;;
36797;SDS011;22748;8.426;99.512;2022-12-24T04:32:30;17.25;;;10.82;;
36797;SDS011;22748;8.426;99.512;2022-12-24T04:35:04;11.38;;;8.90;;
36797;SDS011;22748;8.426;99.512;2022-12-24T04:37:36;10.73;;;8.30;;
36797;SDS011;22748;8.426;99.512;2022-12-24T04:40:06;13.75;;;8.00;;
36797;SDS011;22748;8.426;99.512;2022-12-24T04:42:38;10.18;;;7.57;;
36797;SDS011;22748;8.426;99.512;2022-12-24T04:45:09;10.15;;;7.72;;
36797;SDS011;22748;8.426;99.512;2022-12-24T04:47:39;11.05;;;7.38;;
36797;SDS011;22748;8.426;99.512;2022-12-24T04:50:16;9.13;;;7.20;;
36797;SDS011;22748;8.426;99.512;2022-12-24T04:52:53;9.90;;;7.43;;
36797;SDS011;22748;8.426;99.512;2022-12-24T04:55:24;25.23;;;11.65;;
36797;SDS011;22748;8.426;99.512;2022-12-24T04:57:55;12.23;;;8.60;;
36797;SDS011;22748;8.426;99.512;2022-12-24T05:00:26;10.23;;;7.57;;
36797;SDS011;22748;8.426;99.512;2022-12-24T05:02:56;9.32;;;8.10;;
36797;SDS011;22748;8.426;99.512;2022-12-24T05:05:28;9.18;;;7.57;;
36797;SDS011;22748;8.426;99.512;2022-12-24T05:07:58;8.57;;;7.32;;
36797;SDS011;22748;8.426;99.512;2022-12-24T05:10:27;9.13;;;8.13;;
36797;SDS011;22748;8.426;99.512;2022-12-24T05:12:57;10.15;;;7.90;;
36797;SDS011;22748;8.426;99.512;2022-12-24T05:17:57;10.23;;;7.82;;
36797;SDS011;22748;8.426;99.512;2022-12-24T05:20:29;12.95;;;8.10;;
36797;SDS011;22748;8.426;99.512;2022-12-24T05:26:11;11.88;;;8.02;;
36797;SDS011;22748;8.426;99.512;2022-12-24T05:28:55;9.30;;;8.30;;
36797;SDS011;22748;8.426;99.512;2022-12-24T05:31:26;8.82;;;7.85;;
36797;SDS011;22748;8.426;99.512;2022-12-24T05:33:58;8.77;;;7.40;;
36797;SDS011;22748;8.426;99.512;2022-12-24T05:36:30;10.43;;;8.50;;
36797;SDS011;22748;8.426;99.512;2022-12-24T05:39:01;9.07;;;7.97;;
36797;SDS011;22748;8.426;99.512;2022-12-24T05:41:31;9.70;;;8.50;;
36797;SDS011;22748;8.426;99.512;2022-12-24T05:44:02;14.02;;;8.48;;
36797;SDS011;22748;8.426;99.512;2022-12-24T05:46:33;8.98;;;7.93;;
36797;SDS011;22748;8.426;99.512;2022-12-24T05:49:04;9.82;;;7.70;;
36797;SDS011;22748;8.426;99.512;2022-12-24T05:51:36;10.27;;;8.07;;
36797;SDS011;22748;8.426;99.512;2022-12-24T05:54:08;10.52;;;8.68;;
36797;SDS011;22748;8.426;99.512;2022-12-24T05:59:11;11.68;;;8.55;;
36797;SDS011;22748;8.426;99.512;2022-12-24T06:04:17;9.63;;;8.73;;
36797;SDS011;22748;8.426;99.512;2022-12-24T06:06:49;12.30;;;9.07;;
36797;SDS011;22748;8.426;99.512;2022-12-24T06:09:19;16.38;;;10.23;;
36797;SDS011;22748;8.426;99.512;2022-12-24T06:11:48;11.68;;;10.15;;
36797;SDS011;22748;8.426;99.512;2022-12-24T06:14:18;17.08;;;10.70;;
36797;SDS011;22748;8.426;99.512;2022-12-24T06:16:48;11.23;;;9.27;;
36797;SDS011;22748;8.426;99.512;2022-12-24T06:19:19;17.23;;;10.95;;
36797;SDS011;22748;8.426;99.512;2022-12-24T06:21:55;18.15;;;11.38;;
36797;SDS011;22748;8.426;99.512;2022-12-24T06:24:25;18.67;;;11.45;;
36797;SDS011;22748;8.426;99.512;2022-12-24T06:26:54;11.85;;;10.27;;
36797;SDS011;22748;8.426;99.512;2022-12-24T06:29:25;17.58;;;11.25;;
36797;SDS011;22748;8.426;99.512;2022-12-24T06:31:54;13.13;;;10.25;;
36797;SDS011;22748;8.426;99.512;2022-12-24T06:34:24;15.65;;;11.00;;
36797;SDS011;22748;8.426;99.512;2022-12-24T06:36:55;14.52;;;10.55;;
36797;SDS011;22748;8.426;99.512;2022-12-24T06:39:25;16.73;;;10.68;;
36797;SDS011;22748;8.426;99.512;2022-12-24T06:41:56;14.77;;;10.45;;
36797;SDS011;22748;8.426;99.512;2022-12-24T06:44:26;11.20;;;10.10;;
36797;SDS011;22748;8.426;99.512;2022-12-24T06:46:56;12.95;;;11.30;;
36797;SDS011;22748;8.426;99.512;2022-12-24T06:49:26;11.40;;;10.13;;
36797;SDS011;22748;8.426;99.512;2022-12-24T06:51:58;15.45;;;10.60;;
36797;SDS011;22748;8.426;99.512;2022-12-24T06:54:29;16.30;;;10.73;;
36797;SDS011;22748;8.426;99.512;2022-12-24T06:57:00;12.73;;;10.07;;
36797;SDS011;22748;8.426;99.512;2022-12-24T06:59:33;11.40;;;10.10;;
36797;SDS011;22748;8.426;99.512;2022-12-24T07:02:07;12.13;;;10.43;;
36797;SDS011;22748;8.426;99.512;2022-12-24T07:04:39;15.40;;;10.95;;
36797;SDS011;22748;8.426;99.512;2022-12-24T07:07:11;20.43;;;16.37;;
36797;SDS011;22748;8.426;99.512;2022-12-24T07:09:41;12.48;;;10.98;;
36797;SDS011;22748;8.426;99.512;2022-12-24T07:12:11;11.98;;;10.10;;
36797;SDS011;22748;8.426;99.512;2022-12-24T07:14:42;13.98;;;10.60;;
36797;SDS011;22748;8.426;99.512;2022-12-24T07:17:12;16.30;;;10.40;;
36797;SDS011;22748;8.426;99.512;2022-12-24T07:20:05;12.77;;;9.77;;
36797;SDS011;22748;8.426;99.512;2022-12-24T07:23:02;13.40;;;11.18;;
36797;SDS011;22748;8.426;99.512;2022-12-24T07:25:34;12.27;;;10.98;;
36797;SDS011;22748;8.426;99.512;2022-12-24T07:28:05;16.45;;;10.75;;
36797;SDS011;22748;8.426;99.512;2022-12-24T07:30:37;12.93;;;10.57;;
36797;SDS011;22748;8.426;99.512;2022-12-24T07:33:08;12.48;;;11.05;;
36797;SDS011;22748;8.426;99.512;2022-12-24T07:35:38;23.38;;;18.98;;
36797;SDS011;22748;8.426;99.512;2022-12-24T07:38:10;14.45;;;12.82;;
36797;SDS011;22748;8.426;99.512;2022-12-24T07:40:42;16.70;;;12.75;;
36797;SDS011;22748;8.426;99.512;2022-12-24T07:43:13;21.70;;;13.80;;
36797;SDS011;22748;8.426;99.512;2022-12-24T07:45:46;15.85;;;13.50;;
36797;SDS011;22748;8.426;99.512;2022-12-24T07:48:17;14.38;;;11.80;;
36797;SDS011;22748;8.426;99.512;2022-12-24T07:53:18;17.20;;;12.45;;
36797;SDS011;22748;8.426;99.512;2022-12-24T07:55:48;14.02;;;12.18;;
36797;SDS011;22748;8.426;99.512;2022-12-24T07:58:18;15.77;;;13.20;;
36797;SDS011;22748;8.426;99.512;2022-12-24T08:00:54;13.57;;;11.18;;
36797;SDS011;22748;8.426;99.512;2022-12-24T08:03:26;13.27;;;10.48;;
36797;SDS011;22748;8.426;99.512;2022-12-24T08:05:57;12.10;;;10.38;;
36797;SDS011;22748;8.426;99.512;2022-12-24T08:08:30;15.48;;;10.20;;
36797;SDS011;22748;8.426;99.512;2022-12-24T08:11:03;14.00;;;10.50;;
36797;SDS011;22748;8.426;99.512;2022-12-24T08:13:34;13.95;;;10.90;;
36797;SDS011;22748;8.426;99.512;2022-12-24T08:16:06;13.93;;;10.63;;
36797;SDS011;22748;8.426;99.512;2022-12-24T08:18:37;13.18;;;10.73;;
36797;SDS011;22748;8.426;99.512;2022-12-24T08:24:09;13.90;;;12.45;;
36797;SDS011;22748;8.426;99.512;2022-12-24T08:27:02;13.80;;;12.15;;
36797;SDS011;22748;8.426;99.512;2022-12-24T08:29:55;15.20;;;10.55;;
36797;SDS011;22748;8.426;99.512;2022-12-24T08:49:46;13.70;;;10.98;;
36797;SDS011;22748;8.426;99.512;2022-12-24T08:52:40;12.82;;;11.40;;
36797;SDS011;22748;8.426;99.512;2022-12-24T08:59:15;13.07;;;11.32;;
36797;SDS011;22748;8.426;99.512;2022-12-24T09:01:45;13.45;;;11.45;;
36797;SDS011;22748;8.426;99.512;2022-12-24T09:04:17;12.80;;;11.50;;
36797;SDS011;22748;8.426;99.512;2022-12-24T09:06:55;12.98;;;10.73;;
36797;SDS011;22748;8.426;99.512;2022-12-24T09:09:26;15.50;;;11.48;;
36797;SDS011;22748;8.426;99.512;2022-12-24T09:11:57;13.38;;;11.63;;
36797;SDS011;22748;8.426;99.512;2022-12-24T09:14:31;14.00;;;12.45;;
36797;SDS011;22748;8.426;99.512;2022-12-24T09:17:01;16.05;;;13.23;;
36797;SDS011;22748;8.426;99.512;2022-12-24T09:19:31;14.75;;;12.85;;
36797;SDS011;22748;8.426;99.512;2022-12-24T09:22:04;15.50;;;13.43;;
36797;SDS011;22748;8.426;99.512;2022-12-24T09:24:35;15.55;;;12.50;;
36797;SDS011;22748;8.426;99.512;2022-12-24T09:27:04;15.02;;;12.40;;
36797;SDS011;22748;8.426;99.512;2022-12-24T09:29:34;16.70;;;12.95;;
36797;SDS011;22748;8.426;99.512;2022-12-24T09:32:05;17.30;;;12.55;;
36797;SDS011;22748;8.426;99.512;2022-12-24T09:34:36;17.63;;;12.95;;
36797;SDS011;22748;8.426;99.512;2022-12-24T09:37:10;13.63;;;11.90;;
36797;SDS011;22748;8.426;99.512;2022-12-24T09:39:40;18.60;;;12.73;;
36797;SDS011;22748;8.426;99.512;2022-12-24T09:44:53;15.93;;;12.55;;
36797;SDS011;22748;8.426;99.512;2022-12-24T09:47:28;17.88;;;12.38;;
36797;SDS011;22748;8.426;99.512;2022-12-24T09:50:08;15.00;;;11.98;;
36797;SDS011;22748;8.426;99.512;2022-12-24T09:52:59;15.40;;;12.70;;
36797;SDS011;22748;8.426;99.512;2022-12-24T09:55:35;13.73;;;11.93;;
36797;SDS011;22748;8.426;99.512;2022-12-24T09:58:14;16.58;;;12.52;;
36797;SDS011;22748;8.426;99.512;2022-12-24T10:00:52;16.27;;;13.48;;
36797;SDS011;22748;8.426;99.512;2022-12-24T10:03:23;15.85;;;12.85;;
36797;SDS011;22748;8.426;99.512;2022-12-24T10:06:00;21.25;;;15.02;;
36797;SDS011;22748;8.426;99.512;2022-12-24T10:08:42;19.80;;;15.43;;
36797;SDS011;22748;8.426;99.512;2022-12-24T10:11:28;18.92;;;14.02;;
36797;SDS011;22748;8.426;99.512;2022-12-24T10:14:14;16.42;;;13.60;;
36797;SDS011;22748;8.426;99.512;2022-12-24T10:16:56;16.70;;;15.00;;
36797;SDS011;22748;8.426;99.512;2022-12-24T10:19:40;22.38;;;15.65;;
36797;SDS011;22748;8.426;99.512;2022-12-24T10:22:19;38.80;;;28.95;;
36797;SDS011;22748;8.426;99.512;2022-12-24T10:24:59;29.38;;;22.98;;
36797;SDS011;22748;8.426;99.512;2022-12-24T10:27:38;22.90;;;18.45;;
36797;SDS011;22748;8.426;99.512;2022-12-24T10:30:13;24.83;;;16.85;;
36797;SDS011;22748;8.426;99.512;2022-12-24T10:32:49;23.17;;;16.08;;
36797;SDS011;22748;8.426;99.512;2022-12-24T10:35:21;17.50;;;15.55;;
36797;SDS011;22748;8.426;99.512;2022-12-24T10:37:55;21.15;;;17.02;;
36797;SDS011;22748;8.426;99.512;2022-12-24T10:40:29;21.77;;;17.25;;
36797;SDS011;22748;8.426;99.512;2022-12-24T10:43:08;22.05;;;16.60;;
36797;SDS011;22748;8.426;99.512;2022-12-24T10:45:45;20.80;;;16.33;;
36797;SDS011;22748;8.426;99.512;2022-12-24T10:48:21;18.77;;;15.27;;
36797;SDS011;22748;8.426;99.512;2022-12-24T10:51:01;18.75;;;16.63;;
36797;SDS011;22748;8.426;99.512;2022-12-24T10:53:37;20.20;;;16.08;;
36797;SDS011;22748;8.426;99.512;2022-12-24T10:56:15;21.73;;;16.48;;
36797;SDS011;22748;8.426;99.512;2022-12-24T10:58:50;24.83;;;16.27;;
36797;SDS011;22748;8.426;99.512;2022-12-24T11:01:41;28.30;;;17.38;;
36797;SDS011;22748;8.426;99.512;2022-12-24T11:04:14;31.33;;;18.02;;
36797;SDS011;22748;8.426;99.512;2022-12-24T11:06:54;22.20;;;16.95;;
36797;SDS011;22748;8.426;99.512;2022-12-24T11:09:27;23.15;;;17.02;;
36797;SDS011;22748;8.426;99.512;2022-12-24T11:12:00;18.73;;;15.45;;
36797;SDS011;22748;8.426;99.512;2022-12-24T11:14:35;24.20;;;16.35;;
36797;SDS011;22748;8.426;99.512;2022-12-24T11:17:09;21.77;;;16.35;;
36797;SDS011;22748;8.426;99.512;2022-12-24T11:19:48;30.92;;;22.42;;
36797;SDS011;22748;8.426;99.512;2022-12-24T11:22:22;40.57;;;29.57;;
36797;SDS011;22748;8.426;99.512;2022-12-24T11:24:58;57.15;;;41.72;;
36797;SDS011;22748;8.426;99.512;2022-12-24T11:27:55;46.33;;;36.05;;
36797;SDS011;22748;8.426;99.512;2022-12-24T11:30:37;44.60;;;34.78;;
36797;SDS011;22748;8.426;99.512;2022-12-24T11:33:16;47.03;;;30.15;;
36797;SDS011;22748;8.426;99.512;2022-12-24T11:35:50;39.85;;;30.08;;
36797;SDS011;22748;8.426;99.512;2022-12-24T11:38:33;41.00;;;28.35;;
36797;SDS011;22748;8.426;99.512;2022-12-24T11:41:05;35.95;;;26.65;;
36797;SDS011;22748;8.426;99.512;2022-12-24T11:43:43;34.05;;;25.17;;
36797;SDS011;22748;8.426;99.512;2022-12-24T11:46:16;28.75;;;24.95;;
36797;SDS011;22748;8.426;99.512;2022-12-24T11:48:48;34.63;;;24.92;;
36797;SDS011;22748;8.426;99.512;2022-12-24T11:51:45;34.13;;;26.73;;
36797;SDS011;22748;8.426;99.512;2022-12-24T11:54:44;36.50;;;29.92;;
36797;SDS011;22748;8.426;99.512;2022-12-24T11:57:21;59.10;;;39.22;;
36797;SDS011;22748;8.426;99.512;2022-12-24T12:00:01;63.38;;;42.22;;
36797;SDS011;22748;8.426;99.512;2022-12-24T12:02:34;68.03;;;45.50;;
36797;SDS011;22748;8.426;99.512;2022-12-24T12:05:09;63.28;;;43.35;;
36797;SDS011;22748;8.426;99.512;2022-12-24T12:07:45;60.97;;;41.28;;
36797;SDS011;22748;8.426;99.512;2022-12-24T12:10:21;57.65;;;38.10;;
36797;SDS011;22748;8.426;99.512;2022-12-24T12:12:58;50.97;;;35.97;;
36797;SDS011;22748;8.426;99.512;2022-12-24T12:15:36;51.20;;;37.25;;
36797;SDS011;22748;8.426;99.512;2022-12-24T12:18:14;67.03;;;45.83;;
36797;SDS011;22748;8.426;99.512;2022-12-24T12:20:47;72.15;;;51.80;;
36797;SDS011;22748;8.426;99.512;2022-12-24T12:23:27;88.55;;;64.43;;
36797;SDS011;22748;8.426;99.512;2022-12-24T12:29:00;204.13;;;144.13;;
36797;SDS011;22748;8.426;99.512;2022-12-24T12:31:43;186.32;;;135.57;;
36797;SDS011;22748;8.426;99.512;2022-12-24T12:34:17;190.63;;;133.27;;
36797;SDS011;22748;8.426;99.512;2022-12-24T12:36:53;286.55;;;228.23;;
36797;SDS011;22748;8.426;99.512;2022-12-24T12:39:26;212.15;;;160.30;;
36797;SDS011;22748;8.426;99.512;2022-12-24T12:42:00;126.93;;;94.00;;
36797;SDS011;22748;8.426;99.512;2022-12-24T12:44:43;98.53;;;75.50;;
36797;SDS011;22748;8.426;99.512;2022-12-24T12:47:30;84.75;;;61.95;;
36797;SDS011;22748;8.426;99.512;2022-12-24T12:50:15;81.00;;;53.08;;
36797;SDS011;22748;8.426;99.512;2022-12-24T12:52:55;58.83;;;43.65;;
36797;SDS011;22748;8.426;99.512;2022-12-24T12:55:41;53.40;;;39.65;;
36797;SDS011;22748;8.426;99.512;2022-12-24T12:58:19;58.30;;;43.90;;
36797;SDS011;22748;8.426;99.512;2022-12-24T13:01:00;72.63;;;54.67;;
36797;SDS011;22748;8.426;99.512;2022-12-24T13:06:39;83.47;;;59.72;;
36797;SDS011;22748;8.426;99.512;2022-12-24T13:09:35;78.75;;;51.38;;
36797;SDS011;22748;8.426;99.512;2022-12-24T13:12:26;71.25;;;47.78;;
36797;SDS011;22748;8.426;99.512;2022-12-24T13:21:03;55.75;;;38.83;;
36797;SDS011;22748;8.426;99.512;2022-12-24T13:23:44;56.28;;;37.70;;
36797;SDS011;22748;8.426;99.512;2022-12-24T13:26:23;57.63;;;36.17;;
36797;SDS011;22748;8.426;99.512;2022-12-24T13:31:45;48.22;;;35.83;;
36797;SDS011;22748;8.426;99.512;2022-12-24T13:34:31;43.22;;;33.67;;
36797;SDS011;22748;8.426;99.512;2022-12-24T13:37:15;48.53;;;34.33;;
36797;SDS011;22748;8.426;99.512;2022-12-24T13:42:51;45.95;;;34.60;;
36797;SDS011;22748;8.426;99.512;2022-12-24T13:45:41;45.00;;;34.58;;
36797;SDS011;22748;8.426;99.512;2022-12-24T13:48:26;43.38;;;33.50;;
36797;SDS011;22748;8.426;99.512;2022-12-24T13:51:00;46.05;;;34.10;;
36797;SDS011;22748;8.426;99.512;2022-12-24T13:53:50;42.88;;;32.47;;
36797;SDS011;22748;8.426;99.512;2022-12-24T13:56:27;43.42;;;32.72;;
36797;SDS011;22748;8.426;99.512;2022-12-24T13:59:09;47.33;;;30.45;;
36797;SDS011;22748;8.426;99.512;2022-12-24T14:01:52;40.15;;;29.55;;
36797;SDS011;22748;8.426;99.512;2022-12-24T14:04:26;36.22;;;27.70;;
36797;SDS011;22748;8.426;99.512;2022-12-24T14:07:01;35.53;;;26.33;;
36797;SDS011;22748;8.426;99.512;2022-12-24T14:09:42;38.45;;;25.70;;
36797;SDS011;22748;8.426;99.512;2022-12-24T14:18:20;34.95;;;26.65;;
36797;SDS011;22748;8.426;99.512;2022-12-24T14:21:00;43.17;;;26.33;;
36797;SDS011;22748;8.426;99.512;2022-12-24T14:23:55;32.38;;;24.52;;
36797;SDS011;22748;8.426;99.512;2022-12-24T14:27:05;35.13;;;25.98;;
36797;SDS011;22748;8.426;99.512;2022-12-24T14:30:15;31.58;;;24.85;;
36797;SDS011;22748;8.426;99.512;2022-12-24T14:32:52;36.28;;;27.63;;
36797;SDS011;22748;8.426;99.512;2022-12-24T14:35:28;36.10;;;26.58;;
36797;SDS011;22748;8.426;99.512;2022-12-24T14:38:11;32.50;;;25.60;;
36797;SDS011;22748;8.426;99.512;2022-12-24T14:40:52;33.67;;;25.10;;
36797;SDS011;22748;8.426;99.512;2022-12-24T14:43:44;34.75;;;26.63;;
36797;SDS011;22748;8.426;99.512;2022-12-24T14:46:24;36.28;;;28.00;;
36797;SDS011;22748;8.426;99.512;2022-12-24T14:49:03;32.70;;;26.02;;
36797;SDS011;22748;8.426;99.512;2022-12-24T14:51:45;29.00;;;23.98;;
36797;SDS011;22748;8.426;99.512;2022-12-24T14:54:34;30.55;;;23.42;;
36797;SDS011;22748;8.426;99.512;2022-12-24T14:57:10;26.90;;;22.40;;
36797;SDS011;22748;8.426;99.512;2022-12-24T14:59:49;32.08;;;24.52;;
36797;SDS011;22748;8.426;99.512;2022-12-24T15:02:28;27.92;;;22.70;;
36797;SDS011;22748;8.426;99.512;2022-12-24T15:05:08;31.77;;;21.98;;
36797;SDS011;22748;8.426;99.512;2022-12-24T15:07:41;33.25;;;21.85;;
36797;SDS011;22748;8.426;99.512;2022-12-24T15:13:06;47.55;;;34.53;;
36797;SDS011;22748;8.426;99.512;2022-12-24T15:15:45;45.28;;;30.40;;
36797;SDS011;22748;8.426;99.512;2022-12-24T15:18:18;40.25;;;29.35;;
36797;SDS011;22748;8.426;99.512;2022-12-24T15:21:17;43.88;;;31.65;;
36797;SDS011;22748;8.426;99.512;2022-12-24T15:23:52;36.22;;;28.00;;
36797;SDS011;22748;8.426;99.512;2022-12-24T15:26:25;30.00;;;25.03;;
36797;SDS011;22748;8.426;99.512;2022-12-24T15:29:20;31.55;;;24.50;;
36797;SDS011;22748;8.426;99.512;2022-12-24T15:32:18;32.17;;;23.67;;
36797;SDS011;22748;8.426;99.512;2022-12-24T15:34:49;27.02;;;22.27;;
36797;SDS011;22748;8.426;99.512;2022-12-24T15:37:24;25.50;;;21.50;;
36797;SDS011;22748;8.426;99.512;2022-12-24T15:39:58;26.20;;;21.50;;
36797;SDS011;22748;8.426;99.512;2022-12-24T15:42:35;28.27;;;21.27;;
36797;SDS011;22748;8.426;99.512;2022-12-24T15:45:11;24.88;;;21.23;;
36797;SDS011;22748;8.426;99.512;2022-12-24T15:47:46;26.73;;;21.10;;
36797;SDS011;22748;8.426;99.512;2022-12-24T15:50:22;24.35;;;21.70;;
36797;SDS011;22748;8.426;99.512;2022-12-24T15:52:59;23.00;;;20.60;;
36797;SDS011;22748;8.426;99.512;2022-12-24T15:55:33;25.98;;;21.40;;
36797;SDS011;22748;8.426;99.512;2022-12-24T15:58:12;25.67;;;20.80;;
36797;SDS011;22748;8.426;99.512;2022-12-24T16:00:58;26.73;;;21.05;;
36797;SDS011;22748;8.426;99.512;2022-12-24T16:03:31;35.53;;;26.48;;
36797;SDS011;22748;8.426;99.512;2022-12-24T16:06:02;31.52;;;24.27;;
36797;SDS011;22748;8.426;99.512;2022-12-24T16:08:34;27.27;;;22.40;;
36797;SDS011;22748;8.426;99.512;2022-12-24T16:11:13;30.25;;;24.00;;
36797;SDS011;22748;8.426;99.512;2022-12-24T16:16:32;44.65;;;31.27;;
36797;SDS011;22748;8.426;99.512;2022-12-24T16:19:13;49.13;;;35.55;;
36797;SDS011;22748;8.426;99.512;2022-12-24T16:21:45;44.88;;;31.98;;
36797;SDS011;22748;8.426;99.512;2022-12-24T16:24:22;40.03;;;32.20;;
36797;SDS011;22748;8.426;99.512;2022-12-24T16:30:15;36.75;;;29.08;;
36797;SDS011;22748;8.426;99.512;2022-12-24T16:35:24;33.40;;;25.55;;
36797;SDS011;22748;8.426;99.512;2022-12-24T16:37:59;30.50;;;24.30;;
36797;SDS011;22748;8.426;99.512;2022-12-24T16:40:30;26.77;;;23.15;;
36797;SDS011;22748;8.426;99.512;2022-12-24T16:43:00;28.25;;;22.60;;
36797;SDS011;22748;8.426;99.512;2022-12-24T16:45:42;25.67;;;22.60;;
36797;SDS011;22748;8.426;99.512;2022-12-24T16:48:18;25.60;;;21.33;;
36797;SDS011;22748;8.426;99.512;2022-12-24T16:50:51;27.50;;;21.00;;
36797;SDS011;22748;8.426;99.512;2022-12-24T16:53:21;25.90;;;21.33;;
36797;SDS011;22748;8.426;99.512;2022-12-24T16:55:52;28.77;;;24.52;;
36797;SDS011;22748;8.426;99.512;2022-12-24T16:58:22;47.13;;;35.13;;
36797;SDS011;22748;8.426;99.512;2022-12-24T17:00:53;64.75;;;48.95;;
36797;SDS011;22748;8.426;99.512;2022-12-24T17:03:24;61.67;;;46.80;;
36797;SDS011;22748;8.426;99.512;2022-12-24T17:05:57;53.33;;;39.97;;
36797;SDS011;22748;8.426;99.512;2022-12-24T17:08:29;55.20;;;39.25;;
36797;SDS011;22748;8.426;99.512;2022-12-24T17:10:58;46.33;;;35.03;;
36797;SDS011;22748;8.426;99.512;2022-12-24T17:13:28;42.42;;;34.80;;